Time;durP1;ratioP1;P1;durP2;ratioP2;P2;SDS_P1;SDS_P2;PMS_P1;PMS_P2;Temp;Humidity;BMP_temperature;BMP_pressure;BME280_temperature;BME280_humidity;BME280_pressure;Samples;Min_cycle;Max_cycle;Signal;HPM_P1;HPM_P2
2022/04/23 00:01:42;;;;;;;4.53;3.05;;;;;;;9.34;88.15;100896.03;5051445;28;20215;-70
2022/04/23 00:04:09;;;;;;;4.50;2.92;;;;;;;9.32;89.75;100897.88;5049558;28;20183;-70
2022/04/23 00:06:35;;;;;;;8.60;3.85;;;;;;;9.30;89.49;100899.72;5049028;28;20040;-70
2022/04/23 00:09:00;;;;;;;6.35;3.67;;;;;;;9.29;88.42;100897.13;5048366;28;20126;-70
2022/04/23 00:11:26;;;;;;;5.72;3.35;;;;;;;9.27;89.27;100894.56;5048833;28;20132;-70
2022/04/23 00:13:51;;;;;;;5.18;3.42;;;;;;;9.26;89.27;100905.19;5049149;28;20169;-70
2022/04/23 00:16:17;;;;;;;7.65;3.70;;;;;;;9.22;89.05;100900.00;5061109;28;20054;-70
2022/04/23 00:18:43;;;;;;;7.55;3.70;;;;;;;9.19;89.72;100909.81;5049040;28;20171;-70
2022/04/23 00:21:09;;;;;;;6.85;3.75;;;;;;;9.20;90.35;100900.97;5026975;28;20032;-70
2022/04/23 00:23:34;;;;;;;7.00;3.83;;;;;;;9.21;90.16;100900.09;5041714;28;20072;-70
2022/04/23 00:26:01;;;;;;;9.02;4.25;;;;;;;9.19;90.11;100896.63;5049628;28;20194;-70
2022/04/23 00:28:26;;;;;;;7.38;4.18;;;;;;;9.19;90.40;100894.84;5049962;28;20029;-69
2022/04/23 00:30:52;;;;;;;5.50;3.83;;;;;;;9.17;90.16;100898.47;5049250;28;20031;-70
2022/04/23 00:33:20;;;;;;;8.75;4.50;;;;;;;9.14;90.48;100901.25;5051187;28;20878;-70
2022/04/23 00:35:48;;;;;;;8.57;4.03;;;;;;;9.13;90.49;100902.13;5050694;28;20081;-70
2022/04/23 00:38:16;;;;;;;7.13;3.97;;;;;;;9.10;90.48;100898.72;5049446;28;20048;-70
2022/04/23 00:40:43;;;;;;;6.93;4.60;;;;;;;9.09;90.91;100901.41;5032062;28;20037;-70
2022/04/23 00:43:24;;;;;;;7.63;4.63;;;;;;;9.10;91.33;100904.00;5028167;28;20040;-70
2022/04/23 00:45:49;;;;;;;7.68;4.45;;;;;;;9.09;91.09;100902.28;5038089;28;20649;-70
2022/04/23 00:48:15;;;;;;;6.38;3.92;;;;;;;9.09;90.97;100897.00;5049854;28;20032;-70
2022/04/23 00:50:40;;;;;;;7.53;4.78;;;;;;;9.08;90.89;100900.56;5050128;28;20032;-70
2022/04/23 00:53:06;;;;;;;8.18;4.30;;;;;;;9.06;92.09;100897.09;5050253;28;20093;-70
2022/04/23 00:55:32;;;;;;;10.02;4.95;;;;;;;9.04;92.29;100892.81;5049813;28;20830;-70
2022/04/23 00:57:58;;;;;;;8.63;4.50;;;;;;;9.01;91.12;100890.28;5050404;28;20487;-69
2022/04/23 01:00:25;;;;;;;7.57;4.75;;;;;;;8.99;91.82;100892.13;5048335;28;20082;-70
2022/04/23 01:02:54;;;;;;;8.10;4.57;;;;;;;8.96;91.51;100890.44;5049108;28;20021;-69
2022/04/23 01:05:23;;;;;;;6.88;4.38;;;;;;;8.93;91.76;100893.22;5049648;28;21560;-70
2022/04/23 01:07:50;;;;;;;10.80;5.20;;;;;;;8.90;92.33;100888.91;5048424;28;20094;-70
2022/04/23 01:10:15;;;;;;;7.53;4.68;;;;;;;8.88;92.02;100887.25;5030840;28;20036;-69
2022/04/23 01:12:42;;;;;;;7.32;4.63;;;;;;;8.85;93.18;100884.69;5027066;28;20534;-70
2022/04/23 01:15:09;;;;;;;7.43;4.72;;;;;;;8.81;93.21;100882.19;5048313;28;20048;-70
2022/04/23 01:17:35;;;;;;;8.63;4.85;;;;;;;8.79;93.11;100889.31;5050276;28;20536;-70
2022/04/23 01:20:06;;;;;;;7.18;4.97;;;;;;;8.77;94.10;100888.50;5050982;28;20625;-70
2022/04/23 01:22:32;;;;;;;7.57;4.93;;;;;;;8.74;93.57;100885.09;5052394;28;20108;-68
2022/04/23 01:24:58;;;;;;;9.32;5.13;;;;;;;8.72;94.05;100886.94;5029480;28;20288;-69
2022/04/23 01:27:25;;;;;;;8.27;5.18;;;;;;;8.71;94.22;100894.00;5046774;28;20556;-70
2022/04/23 01:29:51;;;;;;;9.18;4.95;;;;;;;8.68;94.28;100894.97;5036056;28;20054;-69
2022/04/23 01:32:17;;;;;;;8.30;4.90;;;;;;;8.68;93.83;100896.75;5051667;28;20040;-69
2022/04/23 01:34:42;;;;;;;8.77;5.20;;;;;;;8.66;94.03;100894.16;5048020;28;20162;-69
2022/04/23 01:37:08;;;;;;;10.75;5.57;;;;;;;8.65;94.99;100907.41;5052802;28;21477;-69
2022/04/23 01:39:34;;;;;;;9.48;5.10;;;;;;;8.62;94.67;100903.13;5053424;28;21241;-70
2022/04/23 01:42:00;;;;;;;8.93;5.13;;;;;;;8.59;94.38;100903.22;5051901;28;20506;-70
2022/04/23 01:44:25;;;;;;;7.82;5.18;;;;;;;8.56;95.03;100898.91;5052057;28;20033;-68
2022/04/23 01:46:51;;;;;;;8.60;4.88;;;;;;;8.53;94.58;100899.03;5052299;28;20020;-69
2022/04/23 01:49:16;;;;;;;8.98;4.82;;;;;;;8.50;95.52;100908.81;5052505;28;20029;-69
2022/04/23 01:51:42;;;;;;;10.13;4.93;;;;;;;8.48;95.63;100905.34;5051865;28;20609;-72
2022/04/23 01:54:07;;;;;;;7.72;4.70;;;;;;;8.44;95.41;100904.59;5051452;28;20040;-70
2022/04/23 01:56:33;;;;;;;11.80;5.45;;;;;;;8.42;95.89;100902.03;5053171;28;20033;-70
2022/04/23 01:58:58;;;;;;;10.75;4.93;;;;;;;8.41;96.38;100904.72;5047357;28;20028;-70
2022/04/23 02:01:24;;;;;;;6.70;4.38;;;;;;;8.38;95.85;100900.41;5052969;28;20032;-70
2022/04/23 02:03:51;;;;;;;7.35;5.03;;;;;;;8.38;96.15;100899.53;5053777;28;20032;-70
2022/04/23 02:06:17;;;;;;;8.77;5.18;;;;;;;8.37;96.19;100905.75;5052809;28;20287;-70
2022/04/23 02:08:43;;;;;;;8.55;5.20;;;;;;;8.33;96.98;100899.72;5051317;28;20053;-70
2022/04/23 02:11:08;;;;;;;9.77;5.55;;;;;;;8.31;97.30;100901.53;5053036;28;20037;-70
2022/04/23 02:13:34;;;;;;;10.68;5.43;;;;;;;8.30;97.12;100897.19;5053050;28;20582;-70
2022/04/23 02:16:00;;;;;;;8.40;5.07;;;;;;;8.28;96.39;100889.31;5053254;28;20081;-70
2022/04/23 02:18:26;;;;;;;10.98;5.88;;;;;;;8.27;97.58;100892.88;5051758;28;20530;-70
2022/04/23 02:20:52;;;;;;;8.95;5.25;;;;;;;8.26;97.40;100898.19;5052498;28;20052;-69
2022/04/23 02:23:18;;;;;;;13.98;6.65;;;;;;;8.24;97.69;100882.41;5052748;28;21088;-70
2022/04/23 02:25:43;;;;;;;9.57;5.82;;;;;;;8.24;97.81;100892.13;5051152;28;20051;-70
2022/04/23 02:28:09;;;;;;;10.45;5.90;;;;;;;8.23;97.16;100896.53;5052617;28;20032;-70
2022/04/23 02:30:35;;;;;;;10.20;5.50;;;;;;;8.23;98.50;100896.53;5051464;28;20021;-69
2022/04/23 02:33:00;;;;;;;11.18;6.15;;;;;;;8.23;97.88;100901.81;5052479;28;20057;-70
2022/04/23 02:35:26;;;;;;;10.32;6.00;;;;;;;8.22;97.51;100893.97;5050996;28;20040;-68
2022/04/23 02:37:55;;;;;;;9.75;5.93;;;;;;;8.22;97.83;100901.88;5050365;28;20041;-68
2022/04/23 02:40:20;;;;;;;13.02;6.72;;;;;;;8.20;98.71;100901.91;5052483;28;20054;-69
2022/04/23 02:42:46;;;;;;;12.20;6.35;;;;;;;8.22;99.76;100909.78;5052120;28;20028;-68
2022/04/23 02:45:14;;;;;;;10.60;6.88;;;;;;;8.19;98.72;100902.84;5051982;28;20036;-69
2022/04/23 02:47:50;;;;;;;12.30;6.47;;;;;;;8.19;99.13;100907.25;5052028;28;20032;-69
2022/04/23 02:50:27;;;;;;;10.07;6.75;;;;;;;8.17;98.97;100909.94;5045523;28;20680;-69
2022/04/23 02:52:55;;;;;;;9.70;6.28;;;;;;;8.14;98.82;100903.00;5052012;28;20081;-69
2022/04/23 02:55:21;;;;;;;11.05;6.38;;;;;;;8.15;100.00;100909.13;5051473;28;20036;-68
2022/04/23 02:57:47;;;;;;;10.63;6.55;;;;;;;8.12;98.64;100901.34;5051954;28;20053;-68
2022/04/23 03:00:12;;;;;;;11.90;6.38;;;;;;;8.12;99.12;100915.38;5050478;28;20038;-69
2022/04/23 03:02:39;;;;;;;9.00;5.68;;;;;;;8.10;98.93;100905.78;5051772;28;20042;-70
2022/04/23 03:05:14;;;;;;;14.00;6.82;;;;;;;8.11;99.18;100902.22;5051629;28;20056;-69
2022/04/23 03:07:40;;;;;;;10.90;7.15;;;;;;;8.10;99.69;100896.09;5051685;28;20507;-69
2022/04/23 03:10:08;;;;;;;11.02;6.65;;;;;;;8.08;99.62;100894.44;5050913;28;20150;-69
2022/04/23 03:12:36;;;;;;;12.95;6.78;;;;;;;8.08;99.06;100891.78;5029386;28;20037;-69
2022/04/23 03:15:06;;;;;;;11.20;6.88;;;;;;;8.07;99.34;100893.56;5050660;28;20036;-69
2022/04/23 03:17:32;;;;;;;12.02;6.88;;;;;;;8.05;99.29;100900.66;5039299;28;20128;-69
2022/04/23 03:19:58;;;;;;;13.15;7.28;;;;;;;8.06;99.68;100898.91;5049964;28;20036;-69
2022/04/23 03:22:23;;;;;;;11.73;7.43;;;;;;;8.06;99.76;100891.84;5051399;28;20089;-69
2022/04/23 03:24:49;;;;;;;11.52;7.05;;;;;;;8.07;99.66;100890.06;5051604;28;20029;-69
2022/04/23 03:27:15;;;;;;;12.25;6.72;;;;;;;8.07;99.46;100895.34;5049808;28;20483;-69
2022/04/23 03:29:41;;;;;;;10.73;6.80;;;;;;;8.06;99.31;100891.00;5050470;28;20327;-70
2022/04/23 03:32:07;;;;;;;10.43;6.18;;;;;;;8.06;100.00;100891.84;5050527;28;20494;-69
2022/04/23 03:34:32;;;;;;;14.98;7.75;;;;;;;8.08;99.82;100891.78;5051086;28;21646;-68
2022/04/23 03:36:58;;;;;;;11.65;6.72;;;;;;;8.09;99.75;100885.59;5051207;28;20040;-69
2022/04/23 03:39:24;;;;;;;13.35;7.40;;;;;;;8.10;99.97;100895.22;5050797;28;20648;-69
2022/04/23 03:41:50;;;;;;;11.05;6.65;;;;;;;8.09;99.62;100889.09;5050559;28;20052;-70
2022/04/23 03:44:16;;;;;;;14.32;7.65;;;;;;;8.07;99.86;100884.81;5051129;28;20036;-70
2022/04/23 03:46:41;;;;;;;11.75;6.35;;;;;;;8.05;99.97;100891.91;5066217;28;20035;-70
2022/04/23 03:49:08;;;;;;;12.35;6.82;;;;;;;8.02;100.00;100883.16;5050996;28;20347;-70
2022/04/23 03:51:34;;;;;;;10.43;6.75;;;;;;;8.01;99.95;100885.88;5049137;28;20055;-70
2022/04/23 03:54:00;;;;;;;12.60;7.15;;;;;;;7.98;99.80;100896.50;5051033;28;20159;-70
2022/04/23 03:56:26;;;;;;;12.60;7.60;;;;;;;7.97;99.83;100900.06;5051024;28;20025;-70
2022/04/23 03:58:52;;;;;;;12.10;7.15;;;;;;;7.94;99.64;100893.13;5049675;28;20040;-70
2022/04/23 04:01:17;;;;;;;11.15;6.63;;;;;;;7.93;100.00;100885.25;5050435;28;20024;-70
2022/04/23 04:03:43;;;;;;;11.35;6.78;;;;;;;7.93;100.00;100894.03;5050941;28;20109;-71
2022/04/23 04:06:09;;;;;;;13.82;6.90;;;;;;;7.91;99.98;100890.59;5049118;28;20037;-70
2022/04/23 04:08:35;;;;;;;10.88;7.03;;;;;;;7.91;100.00;100885.31;5049269;28;20056;-70
2022/04/23 04:11:01;;;;;;;12.65;7.20;;;;;;;7.90;100.00;100886.22;5049442;28;20136;-70
2022/04/23 04:13:27;;;;;;;12.70;7.57;;;;;;;7.90;100.00;100895.91;5050758;28;20631;-70
2022/04/23 04:15:52;;;;;;;10.82;6.75;;;;;;;7.90;100.00;100883.56;5048136;28;20028;-70
2022/04/23 04:18:18;;;;;;;9.77;5.97;;;;;;;7.89;100.00;100889.78;5050487;28;20505;-72
2022/04/23 04:20:48;;;;;;;12.35;6.78;;;;;;;7.90;100.00;100886.22;5049223;28;20105;-70
2022/04/23 04:23:15;;;;;;;11.95;7.43;;;;;;;7.92;100.00;100880.91;5049222;28;21373;-70
2022/04/23 04:25:40;;;;;;;10.80;6.50;;;;;;;7.88;99.70;100883.66;5050858;28;20024;-70
2022/04/23 04:28:07;;;;;;;13.10;6.90;;;;;;;7.86;99.73;100874.91;5051014;28;20040;-71
2022/04/23 04:31:47;;;;;;;12.07;6.75;;;;;;;7.86;100.00;100881.97;5048929;28;20132;-70
2022/04/23 04:33:18;;;;;;;12.25;6.60;;;;;;;7.85;99.95;100881.09;5050283;28;20052;-70
2022/04/23 04:35:44;;;;;;;10.38;6.15;;;;;;;7.87;99.45;100887.22;5048711;28;20032;-70
2022/04/23 04:38:09;;;;;;;11.68;6.57;;;;;;;7.88;99.67;100886.28;5044465;28;20400;-70
2022/04/23 04:40:35;;;;;;;10.88;6.47;;;;;;;7.88;99.61;100888.06;5048175;28;20032;-71
2022/04/23 04:43:00;;;;;;;11.05;6.90;;;;;;;7.89;99.46;100881.88;5050541;28;20429;-70
2022/04/23 04:45:26;;;;;;;10.48;6.18;;;;;;;7.87;99.58;100889.84;5048264;28;20510;-70
2022/04/23 04:47:51;;;;;;;10.70;6.72;;;;;;;7.87;99.57;100889.84;5049797;28;20973;-69
2022/04/23 04:50:17;;;;;;;8.63;6.35;;;;;;;7.87;99.64;100888.97;5049785;28;20677;-70
2022/04/23 04:52:43;;;;;;;11.13;6.25;;;;;;;7.87;99.27;100889.84;5050248;28;20024;-70
2022/04/23 04:55:09;;;;;;;9.57;5.90;;;;;;;7.87;99.43;100884.56;5053170;28;20044;-70
2022/04/23 04:57:35;;;;;;;9.55;6.10;;;;;;;7.88;99.27;100888.94;5053291;28;20036;-71
2022/04/23 05:00:00;;;;;;;12.27;6.68;;;;;;;7.90;99.24;100890.66;5054606;28;20024;-70
2022/04/23 05:02:26;;;;;;;10.95;6.70;;;;;;;7.90;99.25;100893.28;5052329;28;20029;-71
2022/04/23 05:04:51;;;;;;;11.07;6.00;;;;;;;7.91;99.17;100893.25;5054231;28;20032;-71
2022/04/23 05:07:17;;;;;;;13.38;6.90;;;;;;;7.92;99.17;100896.72;5052644;28;20483;-70
2022/04/23 05:09:42;;;;;;;10.73;6.43;;;;;;;7.94;99.47;100897.50;5052694;28;20040;-71
2022/04/23 05:12:08;;;;;;;12.63;5.97;;;;;;;7.96;98.46;100893.91;5052835;28;20033;-71
2022/04/23 05:14:34;;;;;;;11.93;6.72;;;;;;;8.01;98.24;100896.44;5053665;28;20057;-71
2022/04/23 05:17:00;;;;;;;10.70;6.07;;;;;;;8.04;98.64;100896.31;5054138;28;20546;-70
2022/04/23 05:19:25;;;;;;;9.90;6.07;;;;;;;8.07;98.12;100900.63;5052497;28;20036;-70
2022/04/23 05:21:50;;;;;;;12.18;6.32;;;;;;;8.12;97.98;100888.16;5035541;28;20032;-69
2022/04/23 05:24:16;;;;;;;10.90;6.10;;;;;;;8.18;97.45;100893.22;5052031;28;20036;-69
2022/04/23 05:26:41;;;;;;;8.43;5.93;;;;;;;8.22;97.31;100892.16;5052256;28;20071;-69
2022/04/23 05:29:07;;;;;;;8.98;5.55;;;;;;;8.27;96.85;100892.88;5052519;28;20456;-70
2022/04/23 05:31:32;;;;;;;9.40;6.15;;;;;;;8.33;96.76;100901.50;5053001;28;20029;-69
2022/04/23 05:33:58;;;;;;;11.07;6.22;;;;;;;8.37;96.79;100898.69;5053469;28;20546;-69
2022/04/23 05:36:23;;;;;;;10.38;6.22;;;;;;;8.42;96.16;100894.13;5050911;28;20024;-69
2022/04/23 05:38:49;;;;;;;11.70;5.55;;;;;;;8.47;95.88;100898.34;5053750;28;20036;-69
2022/04/23 05:41:14;;;;;;;9.23;6.18;;;;;;;8.51;95.25;100900.84;5051606;28;20396;-69
2022/04/23 05:43:41;;;;;;;10.82;6.15;;;;;;;8.54;95.65;100899.88;5052011;28;21449;-69
2022/04/23 05:46:07;;;;;;;9.35;5.78;;;;;;;8.58;95.33;100898.88;5051534;28;20028;-71
2022/04/23 05:48:35;;;;;;;8.75;5.53;;;;;;;8.63;95.27;100903.97;5052619;28;20044;-72
2022/04/23 05:51:01;;;;;;;9.38;6.68;;;;;;;8.67;94.82;100906.44;5052236;28;20449;-70
2022/04/23 05:53:27;;;;;;;10.02;6.22;;;;;;;8.71;94.65;100915.13;5051856;28;20119;-70
2022/04/23 05:55:55;;;;;;;9.48;5.85;;;;;;;8.77;94.19;100906.13;5051631;28;20029;-71
2022/04/23 05:58:20;;;;;;;11.13;5.88;;;;;;;8.81;94.22;100903.31;5051514;28;20462;-71
2022/04/23 06:00:46;;;;;;;8.68;5.85;;;;;;;8.87;93.04;100907.50;5053361;28;20610;-69
2022/04/23 06:03:12;;;;;;;11.15;5.75;;;;;;;8.92;92.91;100913.47;5052083;28;20036;-70
2022/04/23 06:05:38;;;;;;;9.93;6.00;;;;;;;8.99;92.61;100910.59;5045812;28;20028;-68
2022/04/23 06:08:04;;;;;;;8.38;5.45;;;;;;;9.05;92.24;100910.38;5052689;28;20036;-69
2022/04/23 06:10:29;;;;;;;7.90;5.90;;;;;;;9.17;91.85;100909.03;5053293;28;20763;-70
2022/04/23 06:12:55;;;;;;;9.15;6.05;;;;;;;9.34;91.29;100914.53;5052714;28;20701;-71
2022/04/23 06:15:20;;;;;;;9.02;5.97;;;;;;;9.49;90.20;100909.56;5052940;28;20045;-72
2022/04/23 06:17:46;;;;;;;9.77;5.70;;;;;;;9.61;90.04;100911.72;5052520;28;20036;-70
2022/04/23 06:20:12;;;;;;;9.90;5.50;;;;;;;9.72;88.85;100913.06;5052482;28;20040;-71
2022/04/23 06:22:37;;;;;;;6.80;5.18;;;;;;;9.75;87.71;100907.66;5051133;28;20036;-71
2022/04/23 06:25:04;;;;;;;8.45;6.13;;;;;;;9.84;87.14;100914.31;5052440;28;20093;-76
2022/04/23 06:27:30;;;;;;;9.00;5.45;;;;;;;9.91;86.14;100915.78;5052988;28;20424;-71
2022/04/23 06:29:56;;;;;;;9.23;5.82;;;;;;;9.98;85.19;100913.78;5051080;28;20039;-70
2022/04/23 06:32:21;;;;;;;8.75;5.75;;;;;;;10.05;86.64;100917.88;5052305;28;20048;-70
2022/04/23 06:34:46;;;;;;;9.20;5.57;;;;;;;10.14;85.85;100913.97;5050491;28;20675;-69
2022/04/23 06:37:13;;;;;;;9.68;6.00;;;;;;;10.19;84.94;100909.38;5050854;28;20661;-70
2022/04/23 06:39:38;;;;;;;7.97;5.32;;;;;;;10.27;84.63;100901.94;5067694;28;20090;-71
2022/04/23 06:42:04;;;;;;;8.48;5.68;;;;;;;10.31;84.52;100910.63;5052301;28;20033;-70
2022/04/23 06:44:30;;;;;;;10.23;5.78;;;;;;;10.37;84.50;100907.72;5052317;28;20031;-70
2022/04/23 06:46:55;;;;;;;7.70;5.38;;;;;;;10.45;84.00;100926.78;5051097;28;20403;-71
2022/04/23 06:49:21;;;;;;;8.93;5.78;;;;;;;10.46;83.57;100924.97;5052374;28;20043;-70
2022/04/23 06:51:47;;;;;;;7.95;5.68;;;;;;;10.47;82.76;100918.78;5052241;28;20128;-70
2022/04/23 06:54:12;;;;;;;9.82;5.68;;;;;;;10.54;82.22;100919.34;5051881;28;20028;-72
2022/04/23 06:56:39;;;;;;;7.57;5.38;;;;;;;10.56;82.67;100914.84;5050467;28;20972;-70
2022/04/23 06:59:05;;;;;;;8.05;5.82;;;;;;;10.65;82.38;100914.47;5049916;28;21488;-72
2022/04/23 07:01:31;;;;;;;9.70;6.03;;;;;;;10.72;81.83;100921.19;5050195;28;20587;-73
2022/04/23 07:03:56;;;;;;;7.95;5.78;;;;;;;10.77;80.83;100922.75;5050811;28;20028;-74
2022/04/23 07:06:22;;;;;;;8.38;5.65;;;;;;;10.76;81.08;100921.03;5029148;28;20036;-71
2022/04/23 07:08:47;;;;;;;8.52;6.00;;;;;;;10.81;81.79;100917.28;5050200;28;20052;-71
2022/04/23 07:11:13;;;;;;;8.10;5.40;;;;;;;10.88;80.26;100917.00;5050055;28;20032;-72
2022/04/23 07:13:38;;;;;;;9.73;5.43;;;;;;;10.88;79.41;100915.19;5051861;28;20100;-72
2022/04/23 07:16:05;;;;;;;10.52;5.78;;;;;;;10.87;78.61;100908.19;5051520;28;20090;-70
2022/04/23 07:18:31;;;;;;;11.07;5.82;;;;;;;10.84;79.05;100908.34;5051119;28;20060;-71
2022/04/23 07:20:57;;;;;;;9.23;5.70;;;;;;;10.82;79.05;100907.53;5051185;28;20037;-72
2022/04/23 07:26:07;;;;;;;9.85;6.13;;;;;;;10.85;78.71;100904.75;5051909;28;20098;-72
2022/04/23 07:28:33;;;;;;;8.93;5.82;;;;;;;10.88;78.94;100896.66;5050347;28;20158;-71
2022/04/23 07:31:00;;;;;;;8.57;5.55;;;;;;;10.93;78.58;100904.38;5049297;28;20104;-72
2022/04/23 07:38:54;;;;;;;10.82;6.15;;;;;;;11.05;78.08;100897.69;5051049;28;20037;-71
2022/04/23 07:41:20;;;;;;;10.18;6.38;;;;;;;11.10;78.01;100890.34;5062182;28;20597;-68
2022/04/23 07:43:46;;;;;;;8.65;5.68;;;;;;;11.18;77.70;100893.53;5050726;28;20036;-68
2022/04/23 07:46:12;;;;;;;8.18;6.03;;;;;;;11.27;76.24;100887.78;5050274;28;20455;-72
2022/04/23 07:48:37;;;;;;;9.27;6.07;;;;;;;11.40;76.88;100890.69;5050823;28;20040;-70
2022/04/23 07:51:03;;;;;;;10.15;5.85;;;;;;;11.54;75.87;100889.16;5051193;28;20040;-71
2022/04/23 07:53:28;;;;;;;9.45;6.20;;;;;;;11.67;76.65;100884.13;5049406;28;20108;-72
2022/04/23 07:55:54;;;;;;;9.52;5.90;;;;;;;11.74;75.00;100882.88;5066037;28;20453;-72
2022/04/23 07:58:20;;;;;;;9.80;5.82;;;;;;;11.82;74.01;100888.66;5050683;28;20094;-75
2022/04/23 08:00:45;;;;;;;9.35;5.72;;;;;;;11.95;73.30;100893.34;5049824;28;20090;-70
2022/04/23 08:03:11;;;;;;;9.85;6.15;;;;;;;12.09;72.12;100890.91;5050964;28;20271;-71
2022/04/23 08:05:37;;;;;;;9.68;5.80;;;;;;;12.21;72.33;100877.94;5049387;28;20165;-72
2022/04/23 08:08:03;;;;;;;8.68;5.28;;;;;;;12.27;68.51;100890.03;5061074;28;20033;-73
2022/04/23 08:10:29;;;;;;;7.90;5.05;;;;;;;12.34;71.10;100888.75;5049081;28;20053;-71
2022/04/23 08:12:55;;;;;;;8.90;5.50;;;;;;;12.53;70.32;100883.31;5032688;28;20170;-73
2022/04/23 08:15:21;;;;;;;8.65;5.18;;;;;;;12.59;68.01;100872.38;5050439;28;20503;-72
2022/04/23 08:17:47;;;;;;;8.20;5.63;;;;;;;12.67;68.27;100866.66;5050176;28;20041;-72
2022/04/23 08:20:13;;;;;;;9.10;5.22;;;;;;;12.76;68.73;100879.44;5032935;28;20029;-71
2022/04/23 08:22:39;;;;;;;8.70;5.70;;;;;;;12.79;67.72;100866.97;5050280;28;20051;-74
2022/04/23 08:25:05;;;;;;;8.15;5.60;;;;;;;12.79;65.55;100867.78;5032734;28;20919;-71
2022/04/23 08:27:31;;;;;;;7.13;5.25;;;;;;;12.70;64.96;100876.28;5050364;28;20043;-73
2022/04/23 08:32:40;;;;;;;7.45;5.15;;;;;;;12.82;67.13;100870.31;5050407;28;20025;-73
2022/04/23 08:35:06;;;;;;;10.88;5.80;;;;;;;12.93;66.95;100869.72;5050293;28;20102;-72
2022/04/23 08:37:35;;;;;;;7.43;5.38;;;;;;;13.08;68.14;100870.66;5032238;28;20024;-72
2022/04/23 08:40:01;;;;;;;8.45;5.22;;;;;;;13.16;66.07;100870.22;5032312;28;20039;-71
2022/04/23 08:42:26;;;;;;;6.65;4.70;;;;;;;13.18;64.49;100877.16;5050013;28;20527;-71
2022/04/23 08:44:53;;;;;;;8.07;5.05;;;;;;;13.08;65.21;100873.31;5050367;28;20040;-72
2022/04/23 08:47:23;;;;;;;7.90;5.47;;;;;;;13.14;65.49;100872.13;5032862;28;20488;-71
2022/04/23 08:49:53;;;;;;;7.50;5.20;;;;;;;13.21;65.87;100877.94;5050205;28;20035;-75
2022/04/23 08:52:33;;;;;;;10.32;5.53;;;;;;;13.25;64.37;100874.19;5054638;28;20035;-73
2022/04/23 08:55:00;;;;;;;8.68;5.53;;;;;;;13.17;64.13;100866.63;5048183;28;20048;-72
2022/04/23 08:57:26;;;;;;;7.70;5.18;;;;;;;13.13;63.88;100887.19;5061508;28;20040;-72
2022/04/23 08:59:56;;;;;;;8.50;5.72;;;;;;;13.22;65.67;100858.38;5050142;28;20035;-72
2022/04/23 09:02:23;;;;;;;8.95;5.80;;;;;;;13.20;63.61;100876.22;5050054;28;20531;-72
2022/04/23 09:04:49;;;;;;;8.73;6.03;;;;;;;13.25;64.68;100872.34;5031532;28;20028;-72
2022/04/23 09:07:25;;;;;;;8.85;5.72;;;;;;;13.36;64.21;100873.56;5049606;28;21390;-72
2022/04/23 09:09:53;;;;;;;7.72;5.75;;;;;;;13.44;64.41;100868.66;5047908;28;20044;-72
2022/04/23 09:12:20;;;;;;;8.07;5.95;;;;;;;13.47;62.56;100868.53;5048861;28;20036;-73
2022/04/23 09:14:46;;;;;;;8.02;5.97;;;;;;;13.51;62.42;100863.91;5031879;28;20478;-71
2022/04/23 09:25:43;;;;;;;7.93;6.00;;;;;;;13.73;61.56;100855.50;5034554;28;20370;-72
2022/04/23 09:28:22;;;;;;;9.10;6.03;;;;;;;13.70;60.98;100855.69;5050005;28;20771;-74
2022/04/23 09:30:50;;;;;;;7.07;5.25;;;;;;;13.67;61.43;100851.41;5045425;28;20090;-70
2022/04/23 09:33:16;;;;;;;7.28;6.00;;;;;;;13.73;62.81;100846.69;5065538;28;20677;-72
2022/04/23 09:36:01;;;;;;;6.38;5.50;;;;;;;13.83;62.01;100847.84;5049892;28;20047;-72
2022/04/23 09:38:28;;;;;;;6.68;5.75;;;;;;;14.03;62.86;100849.31;5031846;28;20040;-72
2022/04/23 09:40:58;;;;;;;8.90;5.40;;;;;;;14.19;61.79;100845.72;5063001;28;20495;-72
2022/04/23 09:43:30;;;;;;;6.85;5.22;;;;;;;14.35;59.83;100846.53;5052397;28;20086;-75
2022/04/23 09:46:06;;;;;;;7.45;5.32;;;;;;;14.26;57.01;100845.28;5053488;28;20604;-73
2022/04/23 09:48:32;;;;;;;11.85;5.95;;;;;;;14.30;59.00;100842.41;5051750;28;20063;-71
2022/04/23 09:50:58;;;;;;;6.57;5.07;;;;;;;14.31;56.83;100846.78;5053264;28;20490;-72
2022/04/23 09:53:27;;;;;;;5.97;5.28;;;;;;;14.28;58.82;100846.97;5035256;28;21111;-71
2022/04/23 09:55:58;;;;;;;6.43;5.22;;;;;;;14.32;58.14;100854.69;5031869;28;20067;-77
2022/04/23 09:58:29;;;;;;;6.82;5.05;;;;;;;14.30;57.91;100845.94;5014038;28;20043;-71
2022/04/23 10:00:56;;;;;;;7.80;5.35;;;;;;;14.23;56.04;100850.75;5051766;28;20410;-73
2022/04/23 10:03:32;;;;;;;8.90;4.97;;;;;;;14.21;55.78;100841.16;5051752;28;20155;-71
2022/04/23 10:05:58;;;;;;;7.43;5.10;;;;;;;14.26;56.57;100839.06;5051121;28;20155;-71
2022/04/23 10:08:26;;;;;;;7.22;5.15;;;;;;;14.32;56.55;100830.72;5051736;28;20143;-73
2022/04/23 10:11:30;;;;;;;6.72;4.82;;;;;;;14.38;54.77;100837.47;5052621;28;20182;-72
2022/04/23 10:14:03;;;;;;;8.32;5.68;;;;;;;14.38;57.19;100842.78;4977830;28;20037;-72
2022/04/23 10:16:30;;;;;;;7.85;6.03;;;;;;;14.42;57.38;100840.81;5041721;28;21428;-71
2022/04/23 10:18:56;;;;;;;7.07;4.78;;;;;;;14.50;56.99;100835.88;5029934;28;20036;-72
2022/04/23 10:21:29;;;;;;;7.43;4.68;;;;;;;14.48;55.75;100843.94;5051450;28;20114;-74
2022/04/23 10:24:09;;;;;;;8.43;5.25;;;;;;;14.46;55.62;100837.88;5051777;28;20033;-73
2022/04/23 10:26:45;;;;;;;6.00;5.15;;;;;;;14.44;56.70;100830.91;5053282;28;20041;-75
2022/04/23 10:29:16;;;;;;;7.38;5.05;;;;;;;14.39;55.75;100823.22;5068069;28;20722;-75
2022/04/23 10:31:42;;;;;;;6.25;5.10;;;;;;;14.42;55.81;100832.81;5048161;28;20033;-72
2022/04/23 10:34:32;;;;;;;8.52;5.22;;;;;;;14.35;55.27;100827.00;5050653;28;20028;-71
2022/04/23 10:37:16;;;;;;;7.35;5.13;;;;;;;14.25;54.76;100826.72;5034477;28;20028;-73
2022/04/23 10:40:01;;;;;;;9.75;5.47;;;;;;;14.30;56.37;100829.09;5052399;28;20045;-71
2022/04/23 10:42:28;;;;;;;5.22;4.63;;;;;;;14.41;56.35;100818.63;5051921;28;20174;-72
2022/04/23 10:44:58;;;;;;;5.97;5.10;;;;;;;14.41;54.97;100837.28;5047844;28;20041;-72
2022/04/23 10:47:28;;;;;;;6.90;5.20;;;;;;;14.34;55.45;100825.31;5050592;28;20127;-71
2022/04/23 10:50:13;;;;;;;7.25;5.35;;;;;;;14.35;55.23;100835.88;5051724;28;20060;-75
2022/04/23 10:52:39;;;;;;;7.70;6.00;;;;;;;14.28;55.61;100834.53;5051550;28;20051;-74
2022/04/23 10:55:06;;;;;;;10.27;5.68;;;;;;;14.27;56.78;100827.47;5050119;28;20040;-70
2022/04/23 10:57:31;;;;;;;6.72;5.28;;;;;;;14.31;56.93;100833.47;5034158;28;20036;-72
2022/04/23 11:00:09;;;;;;;6.50;5.43;;;;;;;14.32;56.62;100821.88;5051084;28;20036;-72
2022/04/23 11:02:35;;;;;;;6.85;5.32;;;;;;;14.28;56.00;100818.56;5045451;28;20115;-74
2022/04/23 11:13:31;;;;;;;7.40;5.63;;;;;;;14.33;55.49;100815.59;5051724;28;20052;-71
2022/04/23 11:16:16;;;;;;;7.50;5.55;;;;;;;14.33;55.63;100828.91;5050052;28;20086;-75
2022/04/23 11:18:43;;;;;;;9.80;5.40;;;;;;;14.44;55.68;100822.94;5051965;28;20158;-72
2022/04/23 11:21:18;;;;;;;8.63;5.35;;;;;;;14.39;53.96;100820.56;5066657;28;20028;-72
2022/04/23 11:23:48;;;;;;;8.93;5.50;;;;;;;14.33;54.98;100820.94;5045214;28;20029;-72
2022/04/23 11:26:14;;;;;;;8.55;6.13;;;;;;;14.43;55.57;100819.38;5050418;28;20128;-73
2022/04/23 11:28:41;;;;;;;7.57;5.72;;;;;;;14.52;55.90;100821.50;5050531;28;20036;-72
2022/04/23 11:31:15;;;;;;;9.52;6.20;;;;;;;14.55;53.88;100815.13;5049702;28;20032;-73
2022/04/23 11:33:55;;;;;;;6.47;5.28;;;;;;;14.58;53.92;100811.38;5051610;28;20028;-72
2022/04/23 11:36:27;;;;;;;8.25;5.43;;;;;;;14.51;52.28;100809.09;5051086;28;20050;-70
2022/04/23 11:38:53;;;;;;;;;;;;;;;14.50;52.60;100810.06;5052150;28;20505;-72
2022/04/23 11:41:27;;;;;;;7.60;5.22;;;;;;;14.56;53.94;100811.50;5044951;28;20054;-71
2022/04/23 11:43:52;;;;;;;7.60;5.63;;;;;;;14.65;55.04;100800.25;5051190;28;20516;-72
2022/04/23 11:46:18;;;;;;;7.57;5.90;;;;;;;14.75;55.19;100819.22;5049943;28;20063;-72
2022/04/23 11:48:48;;;;;;;6.30;4.82;;;;;;;14.84;54.08;100801.78;5017398;28;20047;-74
2022/04/23 11:51:20;;;;;;;6.40;4.93;;;;;;;14.90;54.56;100801.41;5045554;28;20032;-72
2022/04/23 11:53:54;;;;;;;6.95;4.35;;;;;;;14.96;53.96;100791.28;5049918;28;20918;-71
2022/04/23 11:56:39;;;;;;;6.32;5.22;;;;;;;14.94;53.16;100789.56;5051422;28;20028;-72